createdAt,value
2018-05-24T00:02:06.987Z,65.10
2018-05-24T00:04:34.851Z,65.30
2018-05-24T00:07:02.714Z,65.20
2018-05-24T00:09:30.543Z,65.90
2018-05-24T00:11:58.447Z,66.30
2018-05-24T00:14:26.310Z,67.30
2018-05-24T00:16:54.072Z,68.20
2018-05-24T00:19:21.934Z,68.70
2018-05-24T00:21:49.796Z,68.90
2018-05-24T00:24:17.665Z,69.30
2018-05-24T00:26:45.527Z,70.50
2018-05-24T00:29:13.391Z,69.20
2018-05-24T00:31:41.255Z,69.70
2018-05-24T00:34:09.006Z,69.80
2018-05-24T00:36:36.771Z,70.00
2018-05-24T00:39:04.549Z,69.70
2018-05-24T00:41:32.277Z,70.10
2018-05-24T00:44:00.063Z,69.70
2018-05-24T00:46:27.812Z,68.60
2018-05-24T00:48:55.649Z,69.90
2018-05-24T00:51:23.451Z,69.70
2018-05-24T00:53:51.270Z,70.60
2018-05-24T00:56:19.038Z,70.80
2018-05-24T00:58:46.842Z,71.20
2018-05-24T01:01:14.704Z,72.20
2018-05-24T01:03:42.566Z,71.90
2018-05-24T01:06:10.430Z,71.90
2018-05-24T01:08:38.299Z,72.20
2018-05-24T01:11:06.160Z,72.20
2018-05-24T01:13:34.738Z,73.30
2018-05-24T01:16:02.562Z,73.40
2018-05-24T01:18:30.322Z,73.00
2018-05-24T01:20:58.129Z,73.00
2018-05-24T01:23:25.999Z,73.70
2018-05-24T01:25:53.860Z,74.20
2018-05-24T01:28:21.728Z,74.30
2018-05-24T01:30:49.548Z,74.80
2018-05-24T01:33:17.413Z,74.60
2018-05-24T01:35:45.214Z,75.10
2018-05-24T01:38:12.975Z,74.10
2018-05-24T01:40:40.835Z,74.40
2018-05-24T01:43:09.417Z,74.90
2018-05-24T01:45:37.280Z,74.80
2018-05-24T01:48:05.149Z,75.60
2018-05-24T01:50:32.912Z,75.80
2018-05-24T01:53:00.695Z,76.40
2018-05-24T01:55:28.427Z,76.60
2018-05-24T01:57:56.145Z,77.30
2018-05-24T02:00:23.909Z,77.90
2018-05-24T02:02:51.632Z,79.00
2018-05-24T02:05:19.378Z,79.70
2018-05-24T02:07:47.240Z,81.60
2018-05-24T02:10:15.106Z,82.90
2018-05-24T02:12:42.926Z,83.50
2018-05-24T02:15:10.736Z,84.20
2018-05-24T02:17:38.593Z,84.90
2018-05-24T02:20:06.459Z,86.10
2018-05-24T02:22:35.042Z,85.70
2018-05-24T02:25:02.908Z,85.80
2018-05-24T02:27:30.770Z,86.40
2018-05-24T02:29:58.594Z,87.60
2018-05-24T02:32:26.500Z,87.20
2018-05-24T02:34:54.463Z,87.60
2018-05-24T02:37:22.331Z,88.20
2018-05-24T02:39:50.094Z,88.70
2018-05-24T02:42:18.671Z,90.60
2018-05-24T02:44:46.535Z,90.60
2018-05-24T02:47:15.116Z,90.70
2018-05-24T02:49:42.979Z,90.70
2018-05-24T02:52:11.663Z,91.10
2018-05-24T02:54:39.491Z,91.10
2018-05-24T02:57:07.289Z,91.00
2018-05-24T02:59:35.155Z,91.20
2018-05-24T03:02:03.734Z,91.10
2018-05-24T03:04:31.598Z,91.10
2018-05-24T03:07:00.180Z,90.90
2018-05-24T03:09:27.935Z,90.90
2018-05-24T03:11:55.668Z,90.90
2018-05-24T03:14:23.455Z,90.70
2018-05-24T03:16:51.182Z,90.40
2018-05-24T03:19:18.942Z,89.80
2018-05-24T03:21:46.663Z,88.40
2018-05-24T03:24:14.382Z,89.00
2018-05-24T03:26:42.279Z,86.60
2018-05-24T03:29:10.041Z,85.70
2018-05-24T03:31:37.899Z,81.90
2018-05-24T03:34:05.770Z,78.00
2018-05-24T03:36:33.627Z,78.90
2018-05-24T03:39:01.388Z,78.30
2018-05-24T03:41:29.152Z,78.60
2018-05-24T03:43:57.016Z,78.00
2018-05-24T03:46:24.880Z,75.80
2018-05-24T03:48:52.744Z,75.70
2018-05-24T03:51:20.645Z,74.70
2018-05-24T03:53:49.247Z,73.60
2018-05-24T03:56:17.053Z,73.50
2018-05-24T03:58:44.916Z,71.40
2018-05-24T04:01:24.762Z,69.20
2018-05-24T04:03:52.528Z,69.60
2018-05-24T04:06:20.387Z,70.70
2018-05-24T04:08:48.251Z,69.40
2018-05-24T04:11:16.015Z,65.90
2018-05-24T04:13:43.879Z,66.90
2018-05-24T04:16:11.748Z,66.40
2018-05-24T04:18:39.473Z,67.70
2018-05-24T04:21:07.378Z,69.10
2018-05-24T04:23:35.236Z,68.30
2018-05-24T04:26:02.987Z,67.70
2018-05-24T04:28:30.737Z,69.00
2018-05-24T04:30:58.490Z,67.30
2018-05-24T04:33:26.212Z,64.40
2018-05-24T04:35:54.487Z,60.70
2018-05-24T04:38:22.208Z,59.20
2018-05-24T04:40:50.007Z,57.10
2018-05-24T04:43:18.556Z,56.00
2018-05-24T04:45:46.418Z,56.00
2018-05-24T04:48:14.283Z,56.30
2018-05-24T04:50:42.049Z,56.70
2018-05-24T04:53:09.911Z,58.90
2018-05-24T04:55:37.774Z,59.50
2018-05-24T04:58:06.459Z,63.40
2018-05-24T05:00:34.220Z,63.20
2018-05-24T05:03:02.087Z,64.80
2018-05-24T05:05:29.948Z,66.30
2018-05-24T05:07:57.811Z,67.00
2018-05-24T05:10:25.674Z,67.90
2018-05-24T05:12:53.506Z,68.90
2018-05-24T05:15:21.405Z,69.90
2018-05-24T05:17:49.223Z,70.10
2018-05-24T05:20:17.131Z,70.00
2018-05-24T05:22:44.996Z,70.20
2018-05-24T05:25:12.866Z,65.40
2018-05-24T05:27:40.726Z,63.20
2018-05-24T05:30:08.588Z,63.70
2018-05-24T05:32:36.406Z,64.00
2018-05-24T05:35:04.229Z,63.00
2018-05-24T05:37:31.984Z,61.10
2018-05-24T05:39:59.842Z,56.90
2018-05-24T05:42:27.705Z,52.20
2018-05-24T05:44:55.652Z,51.80
2018-05-24T05:47:23.390Z,52.80
2018-05-24T05:49:51.195Z,55.20
2018-05-24T05:52:18.938Z,57.40
2018-05-24T05:54:46.675Z,58.40
2018-05-24T05:57:14.451Z,57.30
2018-05-24T05:59:42.183Z,52.80
2018-05-24T06:02:09.962Z,47.30
2018-05-24T06:04:37.766Z,43.50
2018-05-24T06:07:05.551Z,43.80
2018-05-24T06:09:34.169Z,43.90
2018-05-24T06:12:01.984Z,44.00
2018-05-24T06:14:29.837Z,44.50
2018-05-24T06:16:57.702Z,44.90
2018-05-24T06:19:25.523Z,42.30
2018-05-24T06:21:53.294Z,37.30
2018-05-24T06:24:21.192Z,31.70
2018-05-24T06:26:48.922Z,30.70
2018-05-24T06:29:16.691Z,30.10
2018-05-24T06:31:44.421Z,32.30
2018-05-24T06:34:12.207Z,33.30
2018-05-24T06:36:39.983Z,34.60
2018-05-24T06:39:07.704Z,36.20
2018-05-24T06:41:35.630Z,35.40
2018-05-24T06:44:03.459Z,35.70
2018-05-24T06:46:31.407Z,36.50
2018-05-24T06:48:59.219Z,37.40
2018-05-24T06:51:27.083Z,38.20
2018-05-24T06:53:54.961Z,35.30
2018-05-24T06:56:22.811Z,30.90
2018-05-24T06:58:50.677Z,30.30
2018-05-24T07:01:18.459Z,28.50
2018-05-24T07:03:46.971Z,24.20
2018-05-24T07:06:14.708Z,24.20
2018-05-24T07:08:42.504Z,23.50
2018-05-24T07:11:10.246Z,22.90
2018-05-24T07:13:38.030Z,22.90
2018-05-24T07:16:05.766Z,22.40
2018-05-24T07:18:33.546Z,22.40
2018-05-24T07:21:01.354Z,22.40
2018-05-24T07:23:29.104Z,21.40
2018-05-24T07:25:56.847Z,20.10
2018-05-24T07:28:24.623Z,21.30
2018-05-24T07:30:52.346Z,20.40
2018-05-24T07:33:20.076Z,18.90
2018-05-24T07:35:48.590Z,22.30
2018-05-24T07:38:16.318Z,21.80
2018-05-24T07:40:44.858Z,22.50
2018-05-24T07:43:12.578Z,22.40
2018-05-24T07:45:40.331Z,23.10
2018-05-24T07:48:08.867Z,19.80
2018-05-24T07:50:36.614Z,19.80
2018-05-24T07:53:04.503Z,18.30
2018-05-24T07:55:32.371Z,18.40
2018-05-24T07:58:00.134Z,16.90
2018-05-24T08:00:27.864Z,15.50
2018-05-24T08:02:55.655Z,15.90
2018-05-24T08:05:23.408Z,17.50
2018-05-24T08:07:51.133Z,17.70
2018-05-24T08:10:18.897Z,17.20
2018-05-24T08:12:46.665Z,17.70
2018-05-24T08:15:14.421Z,17.90
2018-05-24T08:17:42.182Z,19.20
2018-05-24T08:20:09.945Z,17.70
2018-05-24T08:22:37.703Z,17.60
2018-05-24T08:25:05.620Z,16.20
2018-05-24T08:27:33.378Z,15.30
2018-05-24T08:30:01.150Z,16.90
2018-05-24T08:32:28.870Z,17.70
2018-05-24T08:34:56.599Z,17.60
2018-05-24T08:37:24.378Z,16.10
2018-05-24T08:39:52.107Z,17.00
2018-05-24T08:42:20.620Z,14.10
2018-05-24T08:44:48.338Z,14.00
2018-05-24T08:47:16.942Z,15.40
2018-05-24T08:49:44.624Z,15.40
2018-05-24T08:52:12.375Z,13.90
2018-05-24T08:54:40.101Z,13.90
2018-05-24T08:57:08.658Z,16.10
2018-05-24T08:59:36.377Z,16.10
2018-05-24T09:02:04.113Z,17.20
2018-05-24T09:04:31.905Z,16.70
2018-05-24T09:06:59.648Z,16.00
2018-05-24T09:09:27.398Z,15.30
2018-05-24T09:11:55.131Z,16.00
2018-05-24T09:14:22.889Z,16.90
2018-05-24T09:16:50.623Z,16.90
2018-05-24T09:19:18.380Z,15.40
2018-05-24T09:21:46.121Z,15.10
2018-05-24T09:24:13.896Z,15.20
2018-05-24T09:26:41.658Z,15.30
2018-05-24T09:29:09.402Z,16.50
2018-05-24T09:31:37.167Z,20.20
2018-05-24T09:34:04.907Z,23.50
2018-05-24T09:36:33.430Z,27.10
2018-05-24T09:39:01.150Z,27.10
2018-05-24T09:41:29.667Z,28.10
2018-05-24T09:43:57.464Z,27.90
2018-05-24T09:46:25.218Z,27.60
2018-05-24T09:48:52.987Z,28.80
2018-05-24T09:51:20.735Z,29.00
2018-05-24T09:53:48.573Z,29.50
2018-05-24T09:56:16.375Z,29.10
2018-05-24T09:58:44.242Z,29.90
2018-05-24T10:01:12.207Z,30.60
2018-05-24T10:03:40.070Z,30.40
2018-05-24T10:06:07.788Z,30.90
2018-05-24T10:08:35.543Z,30.20
2018-05-24T10:11:03.262Z,29.90
2018-05-24T10:13:31.009Z,29.60
2018-05-24T10:15:58.726Z,31.40
2018-05-24T10:18:26.477Z,30.70
2018-05-24T10:20:54.204Z,30.40
2018-05-24T10:23:22.000Z,30.70
2018-05-24T10:25:49.731Z,31.20
2018-05-24T10:28:17.449Z,30.00
2018-05-24T10:30:45.246Z,30.00
2018-05-24T10:33:12.971Z,31.80
2018-05-24T10:35:40.726Z,31.00
2018-05-24T10:38:08.472Z,30.60
2018-05-24T10:40:36.223Z,30.60
2018-05-24T10:43:04.727Z,29.40
2018-05-24T10:45:32.635Z,29.40
2018-05-24T10:48:00.347Z,29.60
2018-05-24T10:50:28.092Z,30.50
2018-05-24T10:52:56.578Z,31.10
2018-05-24T10:55:24.301Z,31.10
2018-05-24T10:57:52.055Z,30.70
2018-05-24T11:00:19.774Z,29.50
2018-05-24T11:02:47.531Z,29.60
2018-05-24T11:05:15.289Z,30.40
2018-05-24T11:07:43.050Z,30.40
2018-05-24T11:10:10.773Z,30.90
2018-05-24T11:12:38.584Z,30.60
2018-05-24T11:15:06.339Z,30.10
2018-05-24T11:17:34.089Z,29.40
2018-05-24T11:20:01.850Z,27.90
2018-05-24T11:22:29.735Z,29.40
2018-05-24T11:24:57.482Z,28.30
2018-05-24T11:27:25.199Z,29.50
2018-05-24T11:29:52.948Z,28.70
2018-05-24T11:32:20.674Z,28.80
2018-05-24T11:34:48.426Z,29.50
2018-05-24T11:37:16.222Z,29.50
2018-05-24T11:39:43.957Z,27.40
2018-05-24T11:42:11.683Z,28.40
2018-05-24T11:44:39.435Z,28.20
2018-05-24T11:47:07.162Z,28.90
2018-05-24T11:49:34.956Z,29.70
2018-05-24T11:52:02.777Z,29.30
2018-05-24T11:54:30.471Z,29.00
2018-05-24T11:56:58.219Z,27.40
2018-05-24T11:59:25.938Z,27.90
2018-05-24T12:01:54.551Z,27.60
2018-05-24T12:04:22.989Z,28.00
2018-05-24T12:06:51.503Z,27.80
2018-05-24T12:09:19.213Z,27.80
2018-05-24T12:11:47.061Z,28.40
2018-05-24T12:14:14.777Z,30.10
2018-05-24T12:16:42.555Z,29.70
2018-05-24T12:19:10.280Z,28.90
2018-05-24T12:21:38.786Z,28.20
2018-05-24T12:24:06.553Z,28.20
2018-05-24T12:26:34.311Z,28.60
2018-05-24T12:29:02.167Z,27.80
2018-05-24T12:31:30.628Z,26.10
2018-05-24T12:33:59.150Z,26.30
2018-05-24T12:36:27.630Z,26.30
2018-05-24T12:38:55.374Z,26.40
2018-05-24T12:41:23.101Z,27.40
2018-05-24T12:43:51.675Z,28.70
2018-05-24T12:46:20.161Z,26.20
2018-05-24T12:48:48.645Z,27.50
2018-05-24T12:51:17.246Z,27.50
2018-05-24T12:53:45.063Z,27.50
2018-05-24T12:56:12.825Z,27.40
2018-05-24T12:58:40.538Z,27.00
2018-05-24T13:01:08.288Z,28.20
2018-05-24T13:03:36.004Z,27.60
2018-05-24T13:06:03.774Z,27.30
2018-05-24T13:08:31.525Z,27.20
2018-05-24T13:10:59.274Z,27.70
2018-05-24T13:13:26.992Z,26.90
2018-05-24T13:15:54.774Z,27.50
2018-05-24T13:18:22.492Z,27.60
2018-05-24T13:20:50.981Z,28.20
2018-05-24T13:23:19.526Z,27.50
2018-05-24T13:25:47.391Z,27.40
2018-05-24T13:28:15.142Z,28.90
2018-05-24T13:30:42.912Z,29.00
2018-05-24T13:33:10.669Z,27.80
2018-05-24T13:35:38.437Z,28.50
2018-05-24T13:38:06.204Z,26.60
2018-05-24T13:40:34.126Z,26.30
2018-05-24T13:43:01.899Z,27.20
2018-05-24T13:45:29.643Z,28.00
2018-05-24T13:47:57.427Z,26.00
2018-05-24T13:50:25.167Z,25.60
2018-05-24T13:52:52.978Z,25.20
2018-05-24T13:55:20.839Z,26.20
2018-05-24T13:57:48.705Z,26.20
2018-05-24T14:00:16.567Z,27.10
2018-05-24T14:02:44.432Z,27.70
2018-05-24T14:05:12.300Z,27.90
2018-05-24T14:07:40.059Z,27.30
2018-05-24T14:10:07.813Z,27.50
2018-05-24T14:12:35.592Z,26.40
2018-05-24T14:15:03.396Z,26.00
2018-05-24T14:17:31.159Z,26.70
2018-05-24T14:19:58.949Z,26.60
2018-05-24T14:22:26.667Z,26.80
2018-05-24T14:24:55.146Z,27.00
2018-05-24T14:27:23.654Z,27.50
2018-05-24T14:29:51.382Z,27.50
2018-05-24T14:32:19.938Z,28.40
2018-05-24T14:34:47.673Z,28.30
2018-05-24T14:37:15.418Z,27.50
2018-05-24T14:39:43.148Z,28.60
2018-05-24T14:42:11.793Z,29.40
2018-05-24T14:44:39.657Z,29.40
2018-05-24T14:47:07.429Z,29.50
2018-05-24T14:49:35.244Z,28.40
2018-05-24T14:52:02.962Z,27.40
2018-05-24T14:54:31.527Z,27.70
2018-05-24T14:56:59.243Z,27.70
2018-05-24T14:59:26.989Z,28.70
2018-05-24T15:01:54.715Z,28.80
2018-05-24T15:04:22.472Z,28.20
2018-05-24T15:06:50.194Z,27.40
2018-05-24T15:09:17.959Z,27.70
2018-05-24T15:11:45.724Z,27.90
2018-05-24T15:14:13.496Z,28.30
2018-05-24T15:16:41.243Z,28.70
2018-05-24T15:19:09.144Z,29.00
2018-05-24T15:21:36.871Z,29.50
2018-05-24T15:24:04.630Z,28.90
2018-05-24T15:26:32.430Z,29.30
2018-05-24T15:29:00.187Z,29.30
2018-05-24T15:31:27.944Z,28.80
2018-05-24T15:33:56.454Z,29.20
2018-05-24T15:36:25.117Z,28.80
2018-05-24T15:38:52.844Z,28.80
2018-05-24T15:41:20.589Z,28.20
2018-05-24T15:43:49.046Z,28.70
2018-05-24T15:46:17.694Z,28.70
2018-05-24T15:48:45.522Z,28.60
2018-05-24T15:51:13.323Z,27.90
2018-05-24T15:53:41.081Z,29.10
2018-05-24T15:56:09.049Z,28.90
2018-05-24T15:58:36.915Z,29.30
2018-05-24T16:01:04.780Z,29.30
2018-05-24T16:03:32.641Z,29.30
2018-05-24T16:06:00.610Z,29.20
2018-05-24T16:08:29.277Z,29.00
2018-05-24T16:10:58.002Z,28.50
2018-05-24T16:13:25.942Z,29.00
2018-05-24T16:15:53.669Z,28.80
2018-05-24T16:18:21.459Z,29.10
2018-05-24T16:20:49.240Z,29.10
2018-05-24T16:23:17.051Z,29.20
2018-05-24T16:25:44.801Z,29.20
2018-05-24T16:28:12.824Z,29.50
2018-05-24T16:30:41.432Z,29.40
2018-05-24T16:33:09.477Z,29.40
2018-05-24T16:38:17.007Z,29.60
2018-05-24T16:40:45.775Z,29.50
2018-05-24T16:43:15.675Z,29.30
2018-05-24T16:45:43.433Z,29.20
2018-05-24T16:48:12.591Z,30.00
2018-05-24T16:50:40.382Z,29.50
2018-05-24T16:53:09.425Z,30.00
2018-05-24T16:55:39.922Z,30.10
2018-05-24T16:58:07.926Z,29.70
2018-05-24T17:00:35.778Z,30.50
2018-05-24T17:03:04.312Z,30.50
2018-05-24T17:05:32.044Z,31.30
2018-05-24T17:08:00.035Z,31.70
2018-05-24T17:10:30.780Z,32.30
2018-05-24T17:12:58.642Z,31.60
2018-05-24T17:15:26.419Z,32.60
2018-05-24T17:17:54.167Z,32.10
2018-05-24T17:20:21.907Z,32.10
2018-05-24T17:22:49.670Z,32.10
2018-05-24T17:25:17.392Z,32.60
2018-05-24T17:27:45.213Z,32.70
2018-05-24T17:30:12.965Z,32.80
2018-05-24T17:32:40.691Z,33.20
2018-05-24T17:35:08.462Z,32.40
2018-05-24T17:37:36.178Z,32.90
2018-05-24T17:40:03.950Z,33.20
2018-05-24T17:42:31.745Z,33.30
2018-05-24T17:44:59.487Z,33.00
2018-05-24T17:47:27.207Z,33.40
2018-05-24T17:49:54.972Z,33.70
2018-05-24T17:52:22.702Z,33.90
2018-05-24T17:54:50.474Z,34.20
2018-05-24T17:57:18.202Z,34.50
2018-05-24T17:59:45.954Z,34.70
2018-05-24T18:02:13.703Z,34.90
2018-05-24T18:04:42.214Z,36.00
2018-05-24T18:07:10.018Z,35.90
2018-05-24T18:09:37.776Z,36.40
2018-05-24T19:48:10.621Z,45.40
2018-05-24T19:50:38.394Z,45.90
2018-05-24T19:53:06.323Z,46.10
2018-05-24T19:55:35.851Z,46.90
2018-05-24T19:58:04.550Z,47.30
2018-05-24T20:00:33.080Z,47.30
2018-05-24T20:03:00.884Z,47.80
2018-05-24T20:05:28.655Z,47.80
2018-05-24T20:08:00.225Z,48.20
2018-05-24T20:10:28.046Z,48.30
2018-05-24T20:12:56.756Z,49.00
2018-05-24T20:15:24.764Z,49.20
2018-05-24T20:17:52.528Z,49.00
2018-05-24T20:20:20.296Z,49.10
2018-05-24T20:22:48.161Z,49.60
2018-05-24T20:25:15.977Z,49.20
2018-05-24T20:31:04.411Z,49.90
2018-05-24T20:33:32.979Z,50.50
2018-05-24T20:36:01.544Z,50.80
2018-05-24T20:38:30.044Z,50.50
2018-05-24T20:40:59.998Z,50.70
2018-05-24T20:46:49.619Z,50.90
2018-05-24T20:49:17.346Z,51.50
2018-05-24T20:57:58.976Z,51.90
2018-05-24T21:00:26.754Z,52.20
2018-05-24T21:02:55.533Z,52.60
2018-05-24T21:05:23.287Z,53.00
2018-05-24T21:27:51.477Z,54.00
2018-05-24T21:30:20.246Z,54.60
2018-05-24T21:32:47.964Z,54.20
2018-05-24T21:35:15.781Z,54.80
2018-05-24T21:37:43.543Z,55.20
2018-05-24T21:40:11.262Z,55.30
2018-05-24T21:42:39.024Z,55.30
2018-05-24T21:48:28.853Z,55.60
2018-05-24T21:54:18.098Z,56.40
2018-05-24T22:03:22.137Z,57.50
2018-05-24T22:05:49.873Z,58.40
2018-05-24T22:08:17.704Z,59.10
2018-05-24T22:14:06.514Z,60.40
